Time;durP1;ratioP1;P1;durP2;ratioP2;P2;SDS_P1;SDS_P2;PMS_P1;PMS_P2;Temp;Humidity;BMP_temperature;BMP_pressure;BME280_temperature;BME280_humidity;BME280_pressure;Samples;Min_cycle;Max_cycle;Signal;HPM_P1;HPM_P2
2021/12/19 00:08:27;;;;;;;37.53;17.02;;;8.20;99.90;;;;;;5075855;28;20068;-64
2021/12/19 00:10:13;;;;;;;41.33;18.65;;;8.30;99.90;;;;;;5079782;28;20045;-64
2021/12/19 00:12:39;;;;;;;42.55;18.90;;;8.30;99.90;;;;;;5080390;28;20043;-64
2021/12/19 00:15:06;;;;;;;41.67;18.50;;;8.40;99.90;;;;;;5080410;28;20047;-63
2021/12/19 00:17:32;;;;;;;40.03;18.17;;;8.20;99.90;;;;;;5080055;28;20120;-63
2021/12/19 00:19:58;;;;;;;43.80;19.45;;;8.20;99.90;;;;;;5080569;28;20119;-63
2021/12/19 00:22:23;;;;;;;41.85;18.73;;;8.20;99.90;;;;;;5080457;28;20024;-63
2021/12/19 00:24:49;;;;;;;44.60;19.80;;;8.30;99.90;;;;;;5079772;28;20420;-64
2021/12/19 00:27:15;;;;;;;43.47;19.55;;;8.30;99.90;;;;;;5079626;28;20037;-63
2021/12/19 00:29:41;;;;;;;42.03;18.67;;;8.30;99.90;;;;;;5079574;28;20053;-64
2021/12/19 00:32:07;;;;;;;41.33;19.20;;;8.30;99.90;;;;;;5080276;28;20024;-63
2021/12/19 00:34:32;;;;;;;40.65;17.75;;;8.30;99.90;;;;;;5080021;28;20041;-63
2021/12/19 00:36:58;;;;;;;40.15;18.85;;;8.40;99.90;;;;;;5079632;28;20031;-63
2021/12/19 00:39:24;;;;;;;39.25;18.23;;;8.40;99.90;;;;;;5079303;28;20050;-63
2021/12/19 00:41:52;;;;;;;38.70;17.98;;;8.40;99.90;;;;;;5079846;28;20025;-64
2021/12/19 00:44:24;;;;;;;38.55;18.15;;;8.40;99.90;;;;;;5046379;28;20050;-64
2021/12/19 00:46:53;;;;;;;34.10;17.98;;;8.30;99.90;;;;;;5079386;28;20171;-64
2021/12/19 00:49:22;;;;;;;34.33;17.98;;;8.40;99.90;;;;;;5080605;28;20036;-64
2021/12/19 00:51:48;;;;;;;33.10;17.33;;;8.40;99.90;;;;;;5079951;28;20048;-64
2021/12/19 00:54:14;;;;;;;34.05;17.80;;;8.40;99.90;;;;;;5079786;28;20028;-64
2021/12/19 00:56:43;;;;;;;31.83;17.00;;;8.40;99.90;;;;;;5079132;28;20028;-64
2021/12/19 00:59:09;;;;;;;33.83;17.60;;;8.40;99.90;;;;;;5079759;28;20395;-65
2021/12/19 01:01:36;;;;;;;30.45;16.95;;;8.40;99.90;;;;;;5080223;28;20116;-65
2021/12/19 01:04:04;;;;;;;28.55;16.00;;;8.40;99.90;;;;;;5078908;28;20043;-63
2021/12/19 01:06:30;;;;;;;31.58;18.05;;;8.40;99.90;;;;;;5079638;28;20024;-63
2021/12/19 01:08:56;;;;;;;35.13;17.42;;;8.40;99.90;;;;;;5079672;28;20047;-63
2021/12/19 01:11:23;;;;;;;34.88;18.55;;;8.40;99.90;;;;;;5079590;28;20024;-63
2021/12/19 01:13:49;;;;;;;32.65;17.85;;;8.50;99.90;;;;;;5078821;28;20070;-64
2021/12/19 01:16:15;;;;;;;31.48;16.48;;;8.50;99.90;;;;;;5079412;28;20040;-63
2021/12/19 01:18:42;;;;;;;25.27;13.52;;;8.40;99.90;;;;;;5078631;28;20400;-63
2021/12/19 01:21:08;;;;;;;23.13;12.75;;;8.40;99.90;;;;;;5078767;28;20024;-64
2021/12/19 01:23:34;;;;;;;24.15;13.20;;;8.40;99.90;;;;;;5079543;28;20040;-63
2021/12/19 01:25:59;;;;;;;21.73;12.20;;;8.40;99.90;;;;;;5078571;28;20028;-64
2021/12/19 01:28:25;;;;;;;21.75;12.27;;;8.40;99.90;;;;;;5079240;28;20051;-63
2021/12/19 01:30:51;;;;;;;22.33;12.13;;;8.40;99.90;;;;;;5079230;28;20105;-63
2021/12/19 01:33:17;;;;;;;20.50;11.63;;;8.50;99.90;;;;;;5078843;28;20316;-63
2021/12/19 01:35:43;;;;;;;21.63;11.85;;;8.40;99.90;;;;;;5079648;28;20364;-63
2021/12/19 01:38:08;;;;;;;22.35;12.00;;;8.50;99.90;;;;;;5079146;28;20392;-63
2021/12/19 01:40:34;;;;;;;23.85;11.82;;;8.40;99.90;;;;;;5078385;28;20032;-63
2021/12/19 01:43:01;;;;;;;23.30;12.45;;;8.40;99.90;;;;;;5078988;28;20124;-63
2021/12/19 01:45:33;;;;;;;23.63;12.80;;;8.50;99.90;;;;;;5079044;28;20043;-63
2021/12/19 01:48:01;;;;;;;21.75;12.35;;;8.40;99.90;;;;;;5079024;28;20091;-63
2021/12/19 01:50:31;;;;;;;19.92;11.35;;;8.40;99.90;;;;;;5078206;28;20034;-63
2021/12/19 01:52:57;;;;;;;20.92;11.25;;;8.40;99.90;;;;;;5078930;28;20028;-64
2021/12/19 01:55:23;;;;;;;19.83;11.15;;;8.40;99.90;;;;;;5077902;28;20099;-63
2021/12/19 01:57:49;;;;;;;19.02;10.68;;;8.40;99.90;;;;;;5078617;28;20383;-63
2021/12/19 02:00:46;;;;;;;21.10;11.73;;;8.40;99.90;;;;;;5078614;28;20095;-63
2021/12/19 02:03:13;;;;;;;20.35;10.75;;;8.40;99.90;;;;;;5071758;28;20091;-63
2021/12/19 02:05:39;;;;;;;20.42;11.43;;;8.40;99.90;;;;;;5077840;28;20101;-63
2021/12/19 02:08:06;;;;;;;21.17;11.55;;;8.40;99.90;;;;;;5077763;28;20037;-63
2021/12/19 02:10:33;;;;;;;22.98;12.02;;;8.50;99.90;;;;;;5079021;28;20094;-63
2021/12/19 02:13:00;;;;;;;23.45;12.52;;;8.40;99.90;;;;;;5078377;28;20044;-64
2021/12/19 02:15:29;;;;;;;24.75;12.10;;;8.40;99.90;;;;;;5077485;28;20036;-63
2021/12/19 02:17:57;;;;;;;21.90;11.95;;;8.40;99.90;;;;;;5078248;28;20063;-63
2021/12/19 02:20:24;;;;;;;25.98;12.73;;;8.30;99.90;;;;;;5078274;28;20020;-63
2021/12/19 02:22:49;;;;;;;25.83;13.00;;;8.30;99.90;;;;;;5077350;28;20021;-63
2021/12/19 02:25:16;;;;;;;25.48;13.40;;;8.30;99.90;;;;;;5078192;28;20273;-63
2021/12/19 02:27:42;;;;;;;25.58;13.20;;;8.40;99.90;;;;;;5077961;28;20038;-63
2021/12/19 02:30:10;;;;;;;26.17;13.85;;;8.40;99.90;;;;;;5077310;28;20063;-63
2021/12/19 02:32:38;;;;;;;31.65;14.70;;;8.40;99.90;;;;;;5077960;28;20044;-64
2021/12/19 02:35:08;;;;;;;29.40;14.30;;;8.30;99.90;;;;;;5077790;28;20292;-63
2021/12/19 02:48:38;;;;;;;36.13;16.95;;;8.40;99.90;;;;;;5066192;28;20072;-63
2021/12/19 02:51:06;;;;;;;32.13;15.55;;;8.60;99.90;;;;;;5077646;28;20040;-63
2021/12/19 02:53:43;;;;;;;33.40;14.77;;;8.60;99.90;;;;;;5076956;28;20044;-63
2021/12/19 02:56:11;;;;;;;29.88;15.20;;;8.60;99.90;;;;;;5077521;28;20047;-63
2021/12/19 02:58:40;;;;;;;30.15;15.35;;;8.60;99.90;;;;;;5077439;28;20088;-63
2021/12/19 03:01:24;;;;;;;34.60;15.77;;;8.60;99.90;;;;;;5077382;28;20021;-63
2021/12/19 03:03:50;;;;;;;31.90;15.75;;;8.50;99.90;;;;;;5076739;28;20021;-63
2021/12/19 03:06:16;;;;;;;34.28;16.63;;;8.40;99.90;;;;;;5077930;28;20039;-63
2021/12/19 03:08:46;;;;;;;36.22;16.08;;;8.50;99.90;;;;;;5077309;28;20356;-64
2021/12/19 03:17:57;;;;;;;37.03;15.85;;;8.40;99.90;;;;;;5077323;28;20083;-63
2021/12/19 03:19:17;;;;;;;40.40;16.92;;;8.40;99.90;;;;;;5062350;28;20403;-64
2021/12/19 03:21:44;;;;;;;40.95;18.13;;;8.50;99.90;;;;;;5076369;28;20102;-63
2021/12/19 03:24:10;;;;;;;44.97;17.80;;;8.50;99.90;;;;;;5077164;28;20125;-64
2021/12/19 03:26:36;;;;;;;54.15;20.85;;;8.50;99.90;;;;;;5076410;28;20072;-63
2021/12/19 03:29:02;;;;;;;50.38;20.00;;;8.50;99.90;;;;;;5076297;28;20024;-63
2021/12/19 03:31:28;;;;;;;53.72;20.88;;;8.50;99.90;;;;;;5077055;28;20354;-63
2021/12/19 03:33:54;;;;;;;52.65;20.50;;;8.50;99.90;;;;;;5076818;28;20061;-63
2021/12/19 03:36:20;;;;;;;56.42;20.70;;;8.50;99.90;;;;;;5059918;28;20029;-63
2021/12/19 03:38:46;;;;;;;66.40;24.38;;;8.50;99.90;;;;;;5076294;28;20037;-63
2021/12/19 03:41:18;;;;;;;61.15;23.48;;;8.50;99.90;;;;;;5076530;28;20028;-63
2021/12/19 03:43:45;;;;;;;73.93;26.50;;;8.40;99.90;;;;;;5076924;28;20033;-63
2021/12/19 03:46:11;;;;;;;78.32;27.17;;;8.40;99.90;;;;;;5076899;28;20085;-63
2021/12/19 03:48:37;;;;;;;69.78;25.45;;;8.50;99.90;;;;;;5076930;28;20304;-63
2021/12/19 03:51:03;;;;;;;77.75;28.77;;;8.40;99.90;;;;;;5076858;28;20032;-63
2021/12/19 03:53:29;;;;;;;102.82;31.60;;;8.40;99.90;;;;;;5075954;28;20477;-63
2021/12/19 03:55:55;;;;;;;89.22;31.02;;;8.20;99.90;;;;;;5077288;28;20132;-63
2021/12/19 03:58:21;;;;;;;95.78;32.30;;;8.20;99.90;;;;;;5076703;28;20029;-63
2021/12/19 04:00:49;;;;;;;121.18;34.05;;;8.10;99.90;;;;;;5076717;28;20021;-63
2021/12/19 04:03:20;;;;;;;93.13;31.52;;;8.20;99.90;;;;;;5076717;28;20041;-63
2021/12/19 04:05:48;;;;;;;115.95;32.97;;;8.20;99.90;;;;;;5076754;28;20037;-62
2021/12/19 04:08:14;;;;;;;111.07;32.80;;;8.10;99.90;;;;;;5076598;28;20021;-63
2021/12/19 04:10:40;;;;;;;115.85;32.47;;;8.20;99.90;;;;;;5076606;28;20281;-63
2021/12/19 04:13:07;;;;;;;154.85;31.95;;;8.30;99.90;;;;;;5076576;28;20041;-62
2021/12/19 04:15:33;;;;;;;127.57;33.05;;;8.30;99.90;;;;;;5058997;28;20036;-63
2021/12/19 04:17:59;;;;;;;105.47;33.20;;;8.30;99.90;;;;;;5076513;28;20074;-64
2021/12/19 04:20:25;;;;;;;135.88;33.70;;;8.00;99.90;;;;;;5076575;28;20040;-63
2021/12/19 04:22:52;;;;;;;136.60;33.17;;;8.00;99.90;;;;;;5076704;28;20112;-63
2021/12/19 04:25:18;;;;;;;147.55;33.13;;;8.10;99.90;;;;;;5076477;28;20033;-63
2021/12/19 04:27:45;;;;;;;130.13;32.25;;;8.10;99.90;;;;;;5076412;28;20033;-63
2021/12/19 04:30:15;;;;;;;160.45;37.63;;;8.10;99.90;;;;;;5076460;28;20325;-63
2021/12/19 04:32:45;;;;;;;124.75;32.97;;;8.10;99.90;;;;;;5076316;28;20028;-63
2021/12/19 04:35:11;;;;;;;184.23;34.22;;;8.00;99.90;;;;;;5059283;28;20423;-63
2021/12/19 04:40:29;;;;;;;135.57;32.10;;;7.90;99.90;;;;;;5076371;28;20057;-63
2021/12/19 04:59:07;;;;;;;112.20;25.90;;;7.70;99.90;;;;;;5079955;28;20075;-63
2021/12/19 05:15:06;;;;;;;80.43;20.95;;;7.80;99.90;;;;;;5076395;28;20135;-64
2021/12/19 05:17:33;;;;;;;103.38;21.17;;;7.70;99.90;;;;;;5079503;28;20028;-64
2021/12/19 05:20:19;;;;;;;99.57;19.05;;;7.70;99.90;;;;;;5079445;28;20037;-63
2021/12/19 05:22:48;;;;;;;112.32;20.40;;;7.80;99.90;;;;;;5079419;28;20032;-64
2021/12/19 05:25:17;;;;;;;123.30;19.35;;;7.90;99.90;;;;;;5062460;28;20043;-65
2021/12/19 05:27:45;;;;;;;68.65;19.13;;;7.90;99.90;;;;;;5079187;28;20028;-64
2021/12/19 05:30:12;;;;;;;76.03;18.33;;;7.80;99.90;;;;;;5078504;28;20079;-64
2021/12/19 05:32:40;;;;;;;65.63;18.90;;;7.70;99.90;;;;;;5078442;28;20044;-64
2021/12/19 05:35:07;;;;;;;98.68;19.98;;;7.60;99.90;;;;;;5078934;28;20079;-63
2021/12/19 05:45:46;;;;;;;82.80;18.00;;;7.90;99.90;;;;;;5078981;28;20035;-63
2021/12/19 05:48:12;;;;;;;103.38;18.65;;;8.00;99.90;;;;;;5079149;28;20028;-64
2021/12/19 05:50:39;;;;;;;70.45;18.52;;;7.80;99.90;;;;;;5079478;28;20127;-64
2021/12/19 05:53:05;;;;;;;66.65;18.63;;;7.70;99.90;;;;;;5078771;28;20048;-64
2021/12/19 05:55:31;;;;;;;62.25;16.30;;;7.50;99.90;;;;;;5079177;28;20032;-63
2021/12/19 05:57:58;;;;;;;66.68;18.00;;;7.50;99.90;;;;;;5079004;28;20108;-64
2021/12/19 06:00:24;;;;;;;63.38;18.52;;;7.50;99.90;;;;;;5077949;28;20094;-63
2021/12/19 06:02:50;;;;;;;82.00;18.30;;;7.60;99.90;;;;;;5077884;28;20029;-63
2021/12/19 06:05:16;;;;;;;48.90;17.15;;;7.70;99.90;;;;;;5077535;28;20044;-63
2021/12/19 06:07:43;;;;;;;86.43;19.85;;;7.60;99.90;;;;;;5078223;28;20036;-63
2021/12/19 06:10:10;;;;;;;53.05;17.65;;;7.60;99.90;;;;;;5078473;28;20047;-63
2021/12/19 06:12:37;;;;;;;70.15;19.27;;;7.60;99.90;;;;;;5077564;28;20029;-63
2021/12/19 06:15:05;;;;;;;53.08;17.77;;;7.60;99.90;;;;;;5078871;28;20029;-63
2021/12/19 06:17:31;;;;;;;46.08;14.38;;;7.70;99.90;;;;;;5078046;28;20032;-64
2021/12/19 06:19:56;;;;;;;37.20;12.52;;;7.80;99.90;;;;;;5078747;28;20025;-64
2021/12/19 06:22:22;;;;;;;47.10;12.93;;;7.50;99.90;;;;;;5077982;28;20032;-64
2021/12/19 06:24:48;;;;;;;57.03;12.98;;;7.30;99.90;;;;;;5078264;28;20033;-63
2021/12/19 06:27:14;;;;;;;37.00;12.80;;;7.50;99.90;;;;;;5078097;28;20024;-64
2021/12/19 06:29:40;;;;;;;42.40;13.85;;;7.50;99.90;;;;;;5078078;28;20375;-64
2021/12/19 06:32:06;;;;;;;59.20;14.35;;;7.50;99.90;;;;;;5077192;28;20043;-63
2021/12/19 06:34:31;;;;;;;46.38;14.32;;;7.40;99.90;;;;;;5077664;28;20048;-64
2021/12/19 06:36:57;;;;;;;53.25;14.38;;;7.50;99.90;;;;;;5077247;28;20025;-64
2021/12/19 06:39:23;;;;;;;41.95;15.13;;;7.50;99.90;;;;;;5077902;28;20029;-64
2021/12/19 06:41:50;;;;;;;53.25;14.77;;;7.50;99.90;;;;;;5077809;28;20138;-64
2021/12/19 06:44:16;;;;;;;46.40;13.35;;;7.50;99.90;;;;;;5077710;28;20064;-64
2021/12/19 06:46:42;;;;;;;56.30;14.88;;;7.60;99.90;;;;;;5077734;28;20390;-64
2021/12/19 06:49:08;;;;;;;53.08;16.00;;;7.60;99.90;;;;;;5077701;28;20092;-64
2021/12/19 06:51:35;;;;;;;64.25;16.83;;;7.60;99.90;;;;;;5078192;28;20230;-64
2021/12/19 06:54:02;;;;;;;52.67;14.88;;;7.60;99.90;;;;;;5077549;28;20043;-64
2021/12/19 06:56:28;;;;;;;66.90;15.45;;;7.70;99.90;;;;;;5077443;28;20134;-64
2021/12/19 06:58:54;;;;;;;46.17;14.27;;;7.70;99.90;;;;;;5076803;28;20384;-64
2021/12/19 07:01:20;;;;;;;55.45;15.07;;;7.80;99.90;;;;;;5077432;28;20115;-64
2021/12/19 07:03:46;;;;;;;46.78;14.32;;;7.70;99.90;;;;;;5077391;28;20052;-64
2021/12/19 07:06:12;;;;;;;63.88;15.77;;;7.70;99.90;;;;;;5076704;28;20123;-63
2021/12/19 07:08:37;;;;;;;52.08;15.75;;;7.90;99.90;;;;;;5076615;28;20109;-65
2021/12/19 07:11:03;;;;;;;57.17;15.70;;;7.80;99.90;;;;;;5077327;28;20059;-64
2021/12/19 07:13:29;;;;;;;62.75;15.65;;;7.70;99.90;;;;;;5077365;28;20036;-64
2021/12/19 07:15:56;;;;;;;52.40;15.52;;;7.70;99.90;;;;;;5076809;28;20033;-64
2021/12/19 07:18:25;;;;;;;56.50;16.30;;;7.70;99.90;;;;;;5076906;28;20059;-64
2021/12/19 07:20:51;;;;;;;48.50;15.07;;;7.80;99.90;;;;;;5076662;28;20047;-64
2021/12/19 07:23:19;;;;;;;78.90;16.48;;;7.70;99.90;;;;;;5076724;28;20388;-65
2021/12/19 07:25:46;;;;;;;58.05;15.43;;;7.80;99.90;;;;;;5077646;28;20116;-64
2021/12/19 07:28:12;;;;;;;43.60;14.57;;;7.90;99.90;;;;;;5077016;28;20040;-65
2021/12/19 07:30:39;;;;;;;45.92;15.02;;;7.70;99.90;;;;;;5059898;28;20285;-64
2021/12/19 07:33:07;;;;;;;44.30;14.90;;;7.70;99.90;;;;;;5076226;28;20028;-63
2021/12/19 07:35:37;;;;;;;61.00;15.75;;;7.70;99.90;;;;;;5076781;28;20340;-64
2021/12/19 07:38:05;;;;;;;50.88;16.23;;;7.70;99.90;;;;;;5077208;28;20052;-64
2021/12/19 07:40:36;;;;;;;48.03;16.73;;;7.70;99.90;;;;;;5075741;28;20455;-64
2021/12/19 07:43:08;;;;;;;46.72;15.98;;;7.70;99.90;;;;;;5076478;28;20082;-64
2021/12/19 07:45:34;;;;;;;48.13;15.87;;;7.60;99.90;;;;;;5076109;28;20052;-65
2021/12/19 07:48:01;;;;;;;50.65;15.05;;;7.70;99.90;;;;;;5076026;28;20033;-65
2021/12/19 07:50:27;;;;;;;44.70;15.95;;;7.80;99.90;;;;;;5076889;28;20406;-64
2021/12/19 07:52:55;;;;;;;46.25;16.35;;;7.90;99.90;;;;;;5076699;28;20024;-65
2021/12/19 07:55:21;;;;;;;49.08;17.05;;;8.00;99.90;;;;;;5076742;28;20036;-65
2021/12/19 07:57:47;;;;;;;47.72;16.60;;;8.10;99.90;;;;;;5076759;28;20035;-65
2021/12/19 08:00:15;;;;;;;44.88;16.27;;;8.10;99.90;;;;;;5076705;28;20033;-64
2021/12/19 08:02:42;;;;;;;42.80;14.80;;;8.00;99.90;;;;;;5076005;28;20049;-64
2021/12/19 08:05:08;;;;;;;43.47;14.15;;;8.00;99.90;;;;;;5076519;28;20032;-64
2021/12/19 08:07:34;;;;;;;41.78;14.82;;;8.10;99.90;;;;;;5076607;28;20075;-64
2021/12/19 08:10:13;;;;;;;40.40;13.80;;;8.10;99.90;;;;;;5076570;28;20138;-64
2021/12/19 08:12:40;;;;;;;40.50;13.32;;;8.20;99.90;;;;;;5075972;28;20043;-63
2021/12/19 08:15:08;;;;;;;36.15;13.77;;;8.00;99.90;;;;;;5076404;28;20054;-64
2021/12/19 08:17:34;;;;;;;35.03;14.43;;;7.90;99.90;;;;;;5076389;28;20047;-67
2021/12/19 08:20:03;;;;;;;34.65;14.73;;;8.00;99.90;;;;;;5076347;28;20435;-67
2021/12/19 08:22:30;;;;;;;37.85;14.15;;;8.10;99.90;;;;;;5076268;28;20036;-67
2021/12/19 08:24:57;;;;;;;39.38;14.57;;;8.10;99.90;;;;;;5076385;28;20303;-67
2021/12/19 08:27:24;;;;;;;31.30;12.18;;;8.10;99.90;;;;;;5076717;28;20123;-67
2021/12/19 08:29:51;;;;;;;30.80;12.15;;;8.20;99.90;;;;;;5079540;28;20407;-68
2021/12/19 08:32:18;;;;;;;26.13;11.40;;;8.30;99.90;;;;;;5080318;28;20033;-67
2021/12/19 08:34:43;;;;;;;24.17;11.27;;;8.10;99.90;;;;;;5079860;28;20059;-67
2021/12/19 08:37:09;;;;;;;22.95;11.25;;;8.00;99.90;;;;;;5080129;28;20032;-67
2021/12/19 08:39:38;;;;;;;28.95;11.68;;;8.10;99.90;;;;;;5079598;28;20412;-66
2021/12/19 08:42:06;;;;;;;24.85;11.68;;;8.10;99.90;;;;;;5079624;28;20129;-66
2021/12/19 08:44:33;;;;;;;27.08;12.13;;;8.20;99.90;;;;;;5079477;28;20037;-66
2021/12/19 08:46:58;;;;;;;29.50;12.35;;;8.30;99.90;;;;;;5080204;28;20047;-66
2021/12/19 08:49:24;;;;;;;31.67;12.55;;;8.30;99.90;;;;;;5079231;28;20277;-67
2021/12/19 08:51:50;;;;;;;30.92;12.82;;;8.40;99.90;;;;;;5079948;28;20351;-69
2021/12/19 08:54:16;;;;;;;26.23;11.98;;;8.40;99.90;;;;;;5079841;28;20074;-67
2021/12/19 08:56:42;;;;;;;25.95;11.50;;;8.40;99.90;;;;;;5080214;28;20028;-66
2021/12/19 08:59:09;;;;;;;24.35;11.90;;;8.40;99.90;;;;;;5079974;28;20115;-68
2021/12/19 09:01:36;;;;;;;18.85;10.68;;;8.60;99.90;;;;;;5078953;28;20024;-66
2021/12/19 09:04:02;;;;;;;20.70;11.10;;;8.70;99.90;;;;;;5078996;28;20032;-67
2021/12/19 09:06:28;;;;;;;23.75;11.57;;;8.50;99.90;;;;;;5045791;28;20093;-67
2021/12/19 09:08:54;;;;;;;21.77;11.15;;;8.40;99.90;;;;;;5062186;28;20388;-66
2021/12/19 09:11:20;;;;;;;23.88;11.82;;;8.50;99.90;;;;;;5079874;28;20025;-67
2021/12/19 09:13:46;;;;;;;25.90;12.13;;;8.60;99.90;;;;;;5079551;28;20414;-67
2021/12/19 09:16:12;;;;;;;27.30;12.00;;;8.70;99.90;;;;;;5079478;28;20130;-67
2021/12/19 09:18:39;;;;;;;22.20;11.38;;;8.70;99.90;;;;;;5079437;28;20028;-66
2021/12/19 09:21:05;;;;;;;21.85;11.60;;;8.70;99.90;;;;;;5078692;28;20063;-66
2021/12/19 09:23:32;;;;;;;23.27;11.98;;;8.70;99.90;;;;;;5079259;28;20296;-67
2021/12/19 09:25:58;;;;;;;26.30;12.50;;;8.70;99.90;;;;;;5078536;28;20020;-67
2021/12/19 09:28:24;;;;;;;23.73;12.43;;;8.70;99.90;;;;;;5079254;28;20028;-67
2021/12/19 09:30:50;;;;;;;24.48;13.60;;;8.80;99.90;;;;;;5079156;28;20411;-66
2021/12/19 09:33:16;;;;;;;18.38;11.40;;;8.80;99.90;;;;;;5061969;28;20296;-66
2021/12/19 09:35:41;;;;;;;24.13;12.98;;;8.80;99.90;;;;;;5078285;28;20432;-67
2021/12/19 09:38:08;;;;;;;25.50;13.00;;;8.80;99.90;;;;;;5061901;28;20031;-65
2021/12/19 09:40:37;;;;;;;26.58;13.98;;;8.90;99.90;;;;;;5078353;28;20032;-66
2021/12/19 09:43:31;;;;;;;21.85;12.40;;;9.00;99.90;;;;;;5079007;28;20032;-67
2021/12/19 09:46:02;;;;;;;26.08;14.32;;;8.90;99.90;;;;;;5079560;28;20261;-67
2021/12/19 09:48:28;;;;;;;27.02;13.73;;;9.00;99.90;;;;;;5078932;28;20032;-67
2021/12/19 09:50:55;;;;;;;24.00;13.57;;;9.00;99.90;;;;;;5079301;28;20094;-67
2021/12/19 09:53:21;;;;;;;19.95;12.27;;;9.10;99.90;;;;;;5078240;28;20094;-67
2021/12/19 09:55:47;;;;;;;28.45;13.73;;;9.00;99.90;;;;;;5078761;28;20056;-68
2021/12/19 09:58:13;;;;;;;27.63;13.15;;;9.00;99.90;;;;;;5078015;28;20075;-67
2021/12/19 10:00:39;;;;;;;22.20;12.35;;;9.10;99.90;;;;;;5078714;28;20322;-65
2021/12/19 10:03:05;;;;;;;26.42;13.10;;;9.00;99.90;;;;;;5061451;28;20039;-67
2021/12/19 10:05:30;;;;;;;24.10;12.52;;;9.00;99.90;;;;;;5078649;28;20051;-67
2021/12/19 10:08:00;;;;;;;19.55;11.18;;;9.10;99.90;;;;;;5078598;28;20032;-70
2021/12/19 10:10:47;;;;;;;24.08;12.90;;;9.10;99.90;;;;;;5077907;28;20044;-70
2021/12/19 10:13:14;;;;;;;21.00;11.90;;;9.10;99.90;;;;;;5078362;28;20130;-70
2021/12/19 10:15:43;;;;;;;21.50;12.45;;;9.20;99.90;;;;;;5078274;28;20122;-69
2021/12/19 10:18:12;;;;;;;21.92;12.10;;;9.20;99.90;;;;;;5077614;28;20036;-70
2021/12/19 10:20:47;;;;;;;21.98;12.60;;;9.30;99.90;;;;;;5078415;28;20162;-70
2021/12/19 10:23:19;;;;;;;22.90;12.73;;;9.30;99.90;;;;;;5078210;28;20107;-71
2021/12/19 10:26:08;;;;;;;22.15;12.82;;;9.30;99.90;;;;;;5078913;28;20043;-70
2021/12/19 10:28:49;;;;;;;21.77;12.75;;;9.30;99.90;;;;;;5078233;28;20050;-70
2021/12/19 10:31:15;;;;;;;21.75;12.52;;;9.40;99.90;;;;;;5078069;28;20383;-71
2021/12/19 10:33:41;;;;;;;21.35;13.30;;;9.40;99.90;;;;;;5077728;28;20060;-70
2021/12/19 10:36:09;;;;;;;23.40;13.25;;;9.60;99.90;;;;;;5077948;28;20074;-71
2021/12/19 10:38:43;;;;;;;19.23;11.57;;;9.60;99.90;;;;;;5077354;28;20125;-71
2021/12/19 10:41:22;;;;;;;16.85;11.00;;;9.30;99.90;;;;;;5078523;28;20032;-70
2021/12/19 10:45:29;;;;;;;21.83;12.02;;;9.10;99.90;;;;;;5077225;28;20047;-73
2021/12/19 10:46:44;;;;;;;19.83;11.60;;;9.30;99.90;;;;;;5075758;28;20173;-63
2021/12/19 10:49:33;;;;;;;18.85;11.20;;;9.50;99.90;;;;;;5077058;28;20112;-65
2021/12/19 10:52:01;;;;;;;20.13;11.40;;;9.50;99.90;;;;;;5077038;28;20037;-64
2021/12/19 10:54:28;;;;;;;20.38;10.75;;;9.60;99.90;;;;;;5076940;28;20040;-65
2021/12/19 10:57:07;;;;;;;14.40;10.05;;;9.60;99.90;;;;;;5077873;28;20081;-65
2021/12/19 10:59:35;;;;;;;14.43;9.80;;;9.70;99.90;;;;;;5076782;28;20036;-64
2021/12/19 11:02:01;;;;;;;10.52;7.90;;;9.70;99.90;;;;;;5077353;28;20105;-65
2021/12/19 11:04:27;;;;;;;8.68;7.45;;;9.90;99.90;;;;;;5076654;28;20307;-65
2021/12/19 11:06:57;;;;;;;10.70;7.57;;;10.00;99.90;;;;;;5077690;28;20116;-65
2021/12/19 11:09:29;;;;;;;9.05;6.72;;;10.10;99.90;;;;;;5077326;28;20021;-65
2021/12/19 11:12:00;;;;;;;6.93;5.55;;;9.90;99.90;;;;;;5077248;28;20039;-64
2021/12/19 11:14:39;;;;;;;6.07;4.63;;;10.00;99.90;;;;;;5077122;28;20036;-66
2021/12/19 11:17:22;;;;;;;5.28;4.00;;;10.00;99.90;;;;;;5077495;28;20093;-64
2021/12/19 11:19:50;;;;;;;5.10;3.97;;;10.00;99.90;;;;;;5077178;28;20117;-65
2021/12/19 11:22:24;;;;;;;5.28;3.95;;;10.10;99.90;;;;;;5077131;28;20024;-64
2021/12/19 11:24:58;;;;;;;5.30;3.92;;;10.00;99.90;;;;;;5077715;28;20115;-65
2021/12/19 11:27:25;;;;;;;5.03;4.43;;;10.10;99.90;;;;;;5077050;28;20021;-65
2021/12/19 11:29:53;;;;;;;5.68;4.72;;;10.10;99.90;;;;;;5077593;28;20321;-64
2021/12/19 11:32:24;;;;;;;6.53;4.72;;;10.10;99.90;;;;;;5076343;28;20372;-64
2021/12/19 11:35:04;;;;;;;5.82;5.20;;;10.10;99.90;;;;;;5076398;28;20319;-64
2021/12/19 11:37:35;;;;;;;6.28;5.20;;;10.20;99.90;;;;;;5076509;28;20055;-64
2021/12/19 11:40:03;;;;;;;8.55;6.45;;;10.30;99.90;;;;;;5077684;28;20024;-65
2021/12/19 11:42:35;;;;;;;10.13;7.80;;;10.30;99.90;;;;;;5076199;28;20391;-65
2021/12/19 11:48:00;;;;;;;11.43;9.35;;;10.20;99.90;;;;;;5076843;28;20037;-64
2021/12/19 11:50:45;;;;;;;11.75;9.07;;;10.10;99.90;;;;;;5076256;28;20388;-65
2021/12/19 11:53:11;;;;;;;12.13;9.45;;;10.00;99.90;;;;;;5076900;28;20052;-65
2021/12/19 11:55:43;;;;;;;14.30;10.50;;;10.00;99.90;;;;;;5076762;28;20029;-64
2021/12/19 11:58:08;;;;;;;11.98;9.68;;;9.90;99.90;;;;;;5076921;28;20028;-65
2021/12/19 12:00:34;;;;;;;12.30;9.15;;;10.00;99.90;;;;;;5076831;28;20027;-64
2021/12/19 12:03:12;;;;;;;12.68;9.00;;;10.00;99.90;;;;;;5077306;28;20029;-65
2021/12/19 12:05:43;;;;;;;10.30;8.25;;;10.00;99.90;;;;;;5080996;28;20071;-64
2021/12/19 12:08:09;;;;;;;10.55;8.45;;;10.10;99.90;;;;;;5080834;28;20058;-67
2021/12/19 12:10:51;;;;;;;10.60;8.73;;;10.00;99.90;;;;;;5080886;28;20070;-67
2021/12/19 12:13:24;;;;;;;10.38;8.98;;;10.10;99.90;;;;;;5080833;28;20340;-65
2021/12/19 12:15:53;;;;;;;11.85;9.13;;;10.10;99.90;;;;;;5080611;28;20028;-66
2021/12/19 12:18:40;;;;;;;11.07;8.90;;;10.00;99.90;;;;;;5080516;28;20352;-65
2021/12/19 12:21:28;;;;;;;10.68;8.98;;;10.00;99.90;;;;;;5080502;28;20036;-66
2021/12/19 12:24:14;;;;;;;11.10;8.88;;;10.00;99.90;;;;;;5080517;28;20024;-65
2021/12/19 12:26:57;;;;;;;8.30;6.85;;;9.90;99.90;;;;;;5080372;28;20044;-66
2021/12/19 12:29:24;;;;;;;8.02;6.47;;;9.90;99.90;;;;;;5080720;28;20170;-65
2021/12/19 12:31:51;;;;;;;7.72;6.28;;;10.00;99.90;;;;;;5080627;28;20418;-66
2021/12/19 12:34:18;;;;;;;8.13;6.50;;;10.10;99.90;;;;;;5079535;28;20051;-65
2021/12/19 12:36:45;;;;;;;6.95;6.05;;;10.10;99.90;;;;;;5080265;28;20308;-66
2021/12/19 12:39:26;;;;;;;7.45;6.57;;;10.10;99.90;;;;;;5080264;28;20048;-66
2021/12/19 12:42:01;;;;;;;8.23;6.60;;;10.20;99.90;;;;;;5080196;28;20036;-64
2021/12/19 12:44:27;;;;;;;7.25;6.05;;;10.30;99.90;;;;;;5080220;28;20029;-65
2021/12/19 12:46:53;;;;;;;8.38;6.18;;;10.20;99.90;;;;;;5080036;28;20040;-65
2021/12/19 12:49:24;;;;;;;6.63;5.70;;;10.30;99.90;;;;;;5079960;28;20455;-65
2021/12/19 12:51:56;;;;;;;7.47;5.70;;;10.30;99.90;;;;;;5080208;28;20090;-65
2021/12/19 12:54:27;;;;;;;8.00;6.57;;;10.20;99.90;;;;;;5079825;28;20379;-65
2021/12/19 12:56:55;;;;;;;7.30;6.20;;;10.10;99.90;;;;;;5079830;28;20032;-65
2021/12/19 12:59:21;;;;;;;8.13;6.68;;;10.20;99.90;;;;;;5079160;28;20082;-67
2021/12/19 13:02:15;;;;;;;8.45;7.13;;;10.10;99.90;;;;;;5080057;28;20435;-66
2021/12/19 13:04:50;;;;;;;8.73;7.47;;;10.10;99.90;;;;;;5072242;28;20037;-66
2021/12/19 13:07:21;;;;;;;8.80;7.53;;;10.20;99.90;;;;;;5079593;28;20020;-66
2021/12/19 13:09:51;;;;;;;8.43;7.03;;;10.20;99.90;;;;;;5080226;28;20119;-65
2021/12/19 13:12:20;;;;;;;10.30;7.72;;;10.20;99.90;;;;;;5079516;28;20025;-65
2021/12/19 13:14:49;;;;;;;8.73;7.80;;;10.20;99.90;;;;;;5078364;28;20055;-66
2021/12/19 13:17:16;;;;;;;11.82;8.15;;;10.20;99.90;;;;;;5079866;28;20028;-65
2021/12/19 13:20:02;;;;;;;10.25;7.65;;;10.20;99.90;;;;;;5079452;28;20049;-65
2021/12/19 13:22:43;;;;;;;8.90;7.75;;;10.20;99.90;;;;;;5078932;28;20044;-65
2021/12/19 13:25:22;;;;;;;9.18;7.93;;;10.10;99.90;;;;;;5078687;28;20032;-66
2021/12/19 13:27:57;;;;;;;8.50;7.57;;;10.10;99.90;;;;;;5078897;28;20032;-65
2021/12/19 13:30:31;;;;;;;11.15;7.65;;;10.20;99.90;;;;;;5079195;28;20047;-65
2021/12/19 13:33:16;;;;;;;8.23;7.43;;;10.20;99.90;;;;;;5079514;28;20056;-64
2021/12/19 13:35:44;;;;;;;9.02;6.78;;;10.10;99.90;;;;;;5078960;28;20388;-64
2021/12/19 13:38:14;;;;;;;8.32;6.93;;;10.00;99.90;;;;;;5079092;28;20048;-65
2021/12/19 13:40:57;;;;;;;7.43;6.72;;;10.00;99.90;;;;;;5079680;28;20029;-65
2021/12/19 13:43:24;;;;;;;8.50;6.70;;;10.00;99.90;;;;;;5079009;28;20029;-67
2021/12/19 13:45:56;;;;;;;8.10;7.30;;;10.10;99.90;;;;;;5079032;28;20052;-67
2021/12/19 13:48:31;;;;;;;8.73;7.82;;;10.00;99.90;;;;;;5078899;28;20403;-66
2021/12/19 13:51:00;;;;;;;7.90;7.10;;;9.80;99.90;;;;;;5078777;28;20029;-66
2021/12/19 13:53:28;;;;;;;8.00;7.28;;;9.90;99.90;;;;;;5077990;28;20029;-66